AirNav   Everest Fuels
 
 1451 users online  

2G5
(formerly 32TE)
Granite Shoals/ Bob Sylvester Airpark
Granite Shoals, Texas, USA

GOING TO GRANITE SHOALS?


FAA INFORMATION EFFECTIVE 19 MAY 2022

Location

FAA Identifier: 2G5
Lat/Long: 30-35-21.6770N 098-22-13.0930W
30-35.361283N 098-22.218217W
30.5893547,-98.3703036
(estimated)
Elevation: 860 ft. / 262 m (estimated)
Variation: 07E (1985)
From city: 1 mile E of GRANITE SHOALS, TX
Time zone: UTC -5 (UTC -6 during Standard Time)
Zip code: 78654

Airport Operations

Airport use: Open to the public
Activation date: 08/1963
Control tower: no
ARTCC: HOUSTON CENTER
FSS: SAN ANGELO FLIGHT SERVICE STATION
NOTAMs facility: 2G5 (NOTAM-D service not available)
Attendance: UNATNDD
Wind indicator: yes
Segmented circle: yes

Airport Communications

CTAF: 122.9
WX AWOS-3 at DZB (4 nm S): 119.775 (830-598-2059)
WX ASOS at BMQ (11 nm NE): 119.925 (512-756-7277)
WX AWOS-3 at AQO (19 nm NW): 119.425 (325-247-2189)

Nearby radio navigation aids

VOR radial/distance  VOR name  Freq  Var
LLOr112/24.8LLANO VORTAC108.2008E
STVr029/28.8STONEWALL VORTAC113.8008E
AGJr193/37.7GOOCH SPRINGS VORTAC112.5005E
GRKr220/39.1GRAY VOR/DME111.8007E

Airport Services

Airframe service: NONE
Powerplant service: NONE

Runway Information

Runway 2/20

Dimensions: 2000 x 50 ft. / 610 x 15 m
Surface: turf/dirt
RUNWAY 2  RUNWAY 20
Traffic pattern: leftleft
Obstructions: 20 ft. trees, 40 ft. left of centerline
+4 FT FENCE ACRS THR.
15 ft. road, 10 ft. from runway

Airport Ownership and Management from official FAA records

Ownership: Publicly-owned
Owner: CITY OF GRANITE SHOALS
2221 NORTH PHILLIPS RANCH RD
GRANITE SHOALS, TX 78654
Phone 830-598-2424
Manager: JEFFREY D. LOONEY
2221 NORTH PHILLIPS RANCH RD
GRANITE SHOALS, TX 78654
Phone 830-598-2424

Airport Operational Statistics

Aircraft based on the field: 4
Single engine airplanes: 1
Ultralights: 3
    

Additional Remarks

FOR CD CTC HOUSTON ARTCC AT 281-230-5622.
AIRPORT IS DAYLIGHT USE ONLY.

Instrument Procedures

There are no published instrument procedures at 2G5.

Some nearby airports with instrument procedures:

KBMQ - Burnet Municipal Airport-Kate Craddock Field (11 nm NE)
KAQO - Llano Municipal Airport (19 nm NW)
KRYW - Lago Vista TX/Rusty Allen Airport (21 nm E)
3R9 - Lakeway Airpark (24 nm SE)
KLZZ - Lampasas Airport (32 nm N)
 
Loc | Ops | Rwys | IFR | FBO | Links
Com | Nav | Svcs | Stats | Notes
Area around 2G5 (Granite Shoals/ Bob Sylvester Airpark)
 
Road maps at: MapQuest Bing Google
 
Aerial photo
WARNING: Photo may not be current or correct
Aerial photo of 2G5 (Granite Shoals/ Bob Sylvester Airpark)
Photo by Jim Wreyford
Photo taken 24-Oct-2008
from the SSE looking NNW

Do you have a better or more recent aerial photo of Granite Shoals/ Bob Sylvester Airpark that you would like to share? If so, please send us your photo.

 
Sectional chart

 
Airport distance calculator
Flying to Granite Shoals/ Bob Sylvester Airpark? Find the distance to fly.

From to 2G5

Sunrise and sunset
Times for 27-May-2022
 Local
(UTC-5)
 Zulu
(UTC)
Morning civil twilight06:0711:07
Sunrise06:3411:34
Sunset20:2701:27
Evening civil twilight20:5401:54

Current date and time
Zulu (UTC)  27-May-2022 15:49:53
Local (UTC-5)  27-May-2022 10:49:53
 
METAR
KDZB 
4nm S 
271535Z AUTO 31005KT 10SM CLR 28/18 A3009 RMK AO2 T02810180
KBMQ 
11nm NE 
271453Z AUTO 14004KT 10SM CLR 27/18 A3010 RMK AO2 SLP175 T02720178 51010
KAQO 
19nm NW 
271535Z AUTO VRB04KT 10SM CLR 28/17 A3008 RMK AO2
TAF
KAUS 
39nm SE 
271121Z 2712/2818 00000KT P6SM FEW008 FM271400 22004KT P6SM FEW012 FM272200 14005KT P6SM FEW060 FM281000 19005KT P6SM FEW010 FM281500 18009KT P6SM SKC
KGRK 
40nm NE 
270800Z 2708/2814 06005KT 9999 SKC QNH3005INS BECMG 2712/1713 18005KT 9999 SKC QNH3008INS TX34/2722Z TN18/2710Z
NOTAMs
Click for the latest NOTAMs
NOTAMs are issued by the DoD/FAA and will open in a separate window not controlled by AirNav.

 

 
 

Would you like to see your business listed on this page?

 If your business provides an interesting product or service to pilots, flight crews, aircraft, or users of the Granite Shoals/ Bob Sylvester Airpark, you should consider listing it here.  To start the listing process, click on the button below
 
Add a business
 

Other Pages about Granite Shoals/ Bob Sylvester Airpark

Update a link
 
Copyright © AirNav, LLC. All rights reserved. Privacy Policy  Contact